sensor_id;sensor_type;location;lat;lon;timestamp;P1;durP1;ratioP1;P2;durP2;ratioP2
26965;SDS011;14522;52.068;4.414;2024-02-26T00:01:42;3.05;;;1.33;;
26965;SDS011;14522;52.068;4.414;2024-02-26T00:04:12;2.72;;;1.20;;
26965;SDS011;14522;52.068;4.414;2024-02-26T00:06:38;2.38;;;1.20;;
26965;SDS011;14522;52.068;4.414;2024-02-26T00:09:08;2.97;;;1.30;;
26965;SDS011;14522;52.068;4.414;2024-02-26T00:11:35;2.22;;;1.23;;
26965;SDS011;14522;52.068;4.414;2024-02-26T00:14:02;2.08;;;1.30;;
26965;SDS011;14522;52.068;4.414;2024-02-26T00:16:29;3.80;;;1.67;;
26965;SDS011;14522;52.068;4.414;2024-02-26T00:18:55;2.78;;;1.38;;
26965;SDS011;14522;52.068;4.414;2024-02-26T00:21:22;2.28;;;1.33;;
26965;SDS011;14522;52.068;4.414;2024-02-26T00:23:53;4.20;;;1.40;;
26965;SDS011;14522;52.068;4.414;2024-02-26T00:26:19;2.33;;;1.15;;
26965;SDS011;14522;52.068;4.414;2024-02-26T00:28:46;2.13;;;1.30;;
26965;SDS011;14522;52.068;4.414;2024-02-26T00:31:12;3.92;;;1.40;;
26965;SDS011;14522;52.068;4.414;2024-02-26T00:33:39;4.50;;;1.50;;
26965;SDS011;14522;52.068;4.414;2024-02-26T00:36:06;3.78;;;1.30;;
26965;SDS011;14522;52.068;4.414;2024-02-26T00:38:32;3.08;;;1.33;;
26965;SDS011;14522;52.068;4.414;2024-02-26T00:40:59;1.95;;;1.40;;
26965;SDS011;14522;52.068;4.414;2024-02-26T00:43:25;2.88;;;1.55;;
26965;SDS011;14522;52.068;4.414;2024-02-26T00:45:52;3.40;;;1.80;;
26965;SDS011;14522;52.068;4.414;2024-02-26T00:48:18;3.03;;;1.75;;
26965;SDS011;14522;52.068;4.414;2024-02-26T00:50:45;3.90;;;1.65;;
26965;SDS011;14522;52.068;4.414;2024-02-26T00:53:12;2.78;;;1.40;;
26965;SDS011;14522;52.068;4.414;2024-02-26T00:55:38;2.90;;;1.30;;
26965;SDS011;14522;52.068;4.414;2024-02-26T00:58:05;2.30;;;1.20;;
26965;SDS011;14522;52.068;4.414;2024-02-26T01:00:31;5.15;;;1.35;;
26965;SDS011;14522;52.068;4.414;2024-02-26T01:02:57;1.98;;;1.15;;
26965;SDS011;14522;52.068;4.414;2024-02-26T01:05:25;1.45;;;1.27;;
26965;SDS011;14522;52.068;4.414;2024-02-26T01:07:52;5.28;;;1.52;;
26965;SDS011;14522;52.068;4.414;2024-02-26T01:10:18;2.67;;;1.10;;
26965;SDS011;14522;52.068;4.414;2024-02-26T01:12:45;1.67;;;1.10;;
26965;SDS011;14522;52.068;4.414;2024-02-26T01:15:11;2.25;;;1.33;;
26965;SDS011;14522;52.068;4.414;2024-02-26T01:17:38;1.35;;;0.85;;
26965;SDS011;14522;52.068;4.414;2024-02-26T01:20:06;1.73;;;1.02;;
26965;SDS011;14522;52.068;4.414;2024-02-26T01:22:32;2.83;;;1.10;;
26965;SDS011;14522;52.068;4.414;2024-02-26T01:24:59;1.55;;;0.93;;
26965;SDS011;14522;52.068;4.414;2024-02-26T01:27:25;3.28;;;1.30;;
26965;SDS011;14522;52.068;4.414;2024-02-26T01:29:53;2.30;;;1.30;;
26965;SDS011;14522;52.068;4.414;2024-02-26T01:32:20;2.50;;;1.35;;
26965;SDS011;14522;52.068;4.414;2024-02-26T01:34:46;2.45;;;1.27;;
26965;SDS011;14522;52.068;4.414;2024-02-26T01:37:12;1.67;;;1.20;;
26965;SDS011;14522;52.068;4.414;2024-02-26T01:39:39;2.22;;;1.20;;
26965;SDS011;14522;52.068;4.414;2024-02-26T01:42:08;1.63;;;1.20;;
26965;SDS011;14522;52.068;4.414;2024-02-26T01:44:34;2.65;;;1.40;;
26965;SDS011;14522;52.068;4.414;2024-02-26T01:47:01;3.03;;;1.38;;
26965;SDS011;14522;52.068;4.414;2024-02-26T01:49:29;1.75;;;1.40;;
26965;SDS011;14522;52.068;4.414;2024-02-26T01:51:56;1.95;;;1.55;;
26965;SDS011;14522;52.068;4.414;2024-02-26T01:54:23;2.50;;;1.95;;
26965;SDS011;14522;52.068;4.414;2024-02-26T01:56:49;3.60;;;2.10;;
26965;SDS011;14522;52.068;4.414;2024-02-26T01:59:17;3.63;;;2.15;;
26965;SDS011;14522;52.068;4.414;2024-02-26T02:01:44;3.20;;;1.80;;
26965;SDS011;14522;52.068;4.414;2024-02-26T02:04:11;3.92;;;2.35;;
26965;SDS011;14522;52.068;4.414;2024-02-26T02:06:38;3.58;;;2.17;;
26965;SDS011;14522;52.068;4.414;2024-02-26T02:09:05;2.50;;;2.22;;
26965;SDS011;14522;52.068;4.414;2024-02-26T02:11:33;4.20;;;2.33;;
26965;SDS011;14522;52.068;4.414;2024-02-26T02:14:00;2.20;;;2.00;;
26965;SDS011;14522;52.068;4.414;2024-02-26T02:16:27;4.72;;;2.45;;
26965;SDS011;14522;52.068;4.414;2024-02-26T02:18:53;4.85;;;3.00;;
26965;SDS011;14522;52.068;4.414;2024-02-26T02:21:20;3.78;;;2.92;;
26965;SDS011;14522;52.068;4.414;2024-02-26T02:23:47;2.97;;;2.28;;
26965;SDS011;14522;52.068;4.414;2024-02-26T02:26:15;4.40;;;2.88;;
26965;SDS011;14522;52.068;4.414;2024-02-26T02:28:42;3.83;;;2.85;;
26965;SDS011;14522;52.068;4.414;2024-02-26T02:31:09;4.57;;;2.60;;
26965;SDS011;14522;52.068;4.414;2024-02-26T02:33:36;4.43;;;2.90;;
26965;SDS011;14522;52.068;4.414;2024-02-26T02:36:03;6.35;;;2.95;;
26965;SDS011;14522;52.068;4.414;2024-02-26T02:38:30;4.10;;;2.55;;
26965;SDS011;14522;52.068;4.414;2024-02-26T02:40:58;3.03;;;2.13;;
26965;SDS011;14522;52.068;4.414;2024-02-26T02:43:24;3.50;;;2.55;;
26965;SDS011;14522;52.068;4.414;2024-02-26T02:45:51;3.15;;;2.70;;
26965;SDS011;14522;52.068;4.414;2024-02-26T02:48:17;2.63;;;2.00;;
26965;SDS011;14522;52.068;4.414;2024-02-26T02:50:44;3.92;;;2.40;;
26965;SDS011;14522;52.068;4.414;2024-02-26T02:53:11;3.38;;;2.15;;
26965;SDS011;14522;52.068;4.414;2024-02-26T02:55:37;3.70;;;2.53;;
26965;SDS011;14522;52.068;4.414;2024-02-26T02:58:04;3.42;;;2.40;;
26965;SDS011;14522;52.068;4.414;2024-02-26T03:00:30;3.30;;;2.47;;
26965;SDS011;14522;52.068;4.414;2024-02-26T03:02:57;5.35;;;2.90;;
26965;SDS011;14522;52.068;4.414;2024-02-26T03:05:23;3.08;;;2.05;;
26965;SDS011;14522;52.068;4.414;2024-02-26T03:07:50;3.40;;;2.13;;
26965;SDS011;14522;52.068;4.414;2024-02-26T03:10:16;4.35;;;2.22;;
26965;SDS011;14522;52.068;4.414;2024-02-26T03:12:43;3.22;;;2.20;;
26965;SDS011;14522;52.068;4.414;2024-02-26T03:15:09;2.03;;;1.70;;
26965;SDS011;14522;52.068;4.414;2024-02-26T03:17:37;4.55;;;2.40;;
26965;SDS011;14522;52.068;4.414;2024-02-26T03:20:04;3.60;;;2.42;;
26965;SDS011;14522;52.068;4.414;2024-02-26T03:22:31;3.38;;;1.95;;
26965;SDS011;14522;52.068;4.414;2024-02-26T03:24:58;3.58;;;2.28;;
26965;SDS011;14522;52.068;4.414;2024-02-26T03:27:24;4.15;;;2.53;;
26965;SDS011;14522;52.068;4.414;2024-02-26T03:29:50;3.63;;;2.55;;
26965;SDS011;14522;52.068;4.414;2024-02-26T03:32:18;5.40;;;2.83;;
26965;SDS011;14522;52.068;4.414;2024-02-26T03:34:45;4.68;;;3.25;;
26965;SDS011;14522;52.068;4.414;2024-02-26T03:37:12;4.63;;;2.67;;
26965;SDS011;14522;52.068;4.414;2024-02-26T03:39:38;4.55;;;3.17;;
26965;SDS011;14522;52.068;4.414;2024-02-26T03:42:05;3.30;;;3.00;;
26965;SDS011;14522;52.068;4.414;2024-02-26T03:44:31;4.72;;;3.03;;
26965;SDS011;14522;52.068;4.414;2024-02-26T03:46:58;4.32;;;2.78;;
26965;SDS011;14522;52.068;4.414;2024-02-26T03:49:24;4.40;;;3.13;;
26965;SDS011;14522;52.068;4.414;2024-02-26T03:51:51;4.63;;;3.17;;
26965;SDS011;14522;52.068;4.414;2024-02-26T03:54:17;4.90;;;2.95;;
26965;SDS011;14522;52.068;4.414;2024-02-26T03:56:44;3.83;;;3.28;;
26965;SDS011;14522;52.068;4.414;2024-02-26T03:59:10;5.68;;;3.38;;
26965;SDS011;14522;52.068;4.414;2024-02-26T04:01:36;4.25;;;3.40;;
26965;SDS011;14522;52.068;4.414;2024-02-26T04:04:03;5.15;;;3.17;;
26965;SDS011;14522;52.068;4.414;2024-02-26T04:06:29;3.85;;;3.15;;
26965;SDS011;14522;52.068;4.414;2024-02-26T04:08:56;3.95;;;3.08;;
26965;SDS011;14522;52.068;4.414;2024-02-26T04:11:23;5.60;;;3.17;;
26965;SDS011;14522;52.068;4.414;2024-02-26T04:13:49;5.05;;;3.72;;
26965;SDS011;14522;52.068;4.414;2024-02-26T04:16:18;4.68;;;3.47;;
26965;SDS011;14522;52.068;4.414;2024-02-26T04:18:45;4.75;;;4.00;;
26965;SDS011;14522;52.068;4.414;2024-02-26T04:21:11;6.20;;;3.95;;
26965;SDS011;14522;52.068;4.414;2024-02-26T04:23:38;4.97;;;3.38;;
26965;SDS011;14522;52.068;4.414;2024-02-26T04:26:04;7.32;;;3.83;;
26965;SDS011;14522;52.068;4.414;2024-02-26T04:28:31;4.97;;;3.95;;
26965;SDS011;14522;52.068;4.414;2024-02-26T04:30:57;4.82;;;3.97;;
26965;SDS011;14522;52.068;4.414;2024-02-26T04:33:24;3.45;;;2.75;;
26965;SDS011;14522;52.068;4.414;2024-02-26T04:35:50;6.45;;;4.80;;
26965;SDS011;14522;52.068;4.414;2024-02-26T04:38:17;3.90;;;3.03;;
26965;SDS011;14522;52.068;4.414;2024-02-26T04:40:43;5.63;;;3.72;;
26965;SDS011;14522;52.068;4.414;2024-02-26T04:43:09;5.45;;;3.55;;
26965;SDS011;14522;52.068;4.414;2024-02-26T04:45:36;5.75;;;4.30;;
26965;SDS011;14522;52.068;4.414;2024-02-26T04:48:02;6.78;;;4.03;;
26965;SDS011;14522;52.068;4.414;2024-02-26T04:50:29;5.15;;;4.32;;
26965;SDS011;14522;52.068;4.414;2024-02-26T04:52:56;5.60;;;4.15;;
26965;SDS011;14522;52.068;4.414;2024-02-26T04:55:22;6.95;;;3.88;;
26965;SDS011;14522;52.068;4.414;2024-02-26T04:57:48;6.28;;;4.78;;
26965;SDS011;14522;52.068;4.414;2024-02-26T05:00:15;7.63;;;4.57;;
26965;SDS011;14522;52.068;4.414;2024-02-26T05:02:42;5.57;;;4.28;;
26965;SDS011;14522;52.068;4.414;2024-02-26T05:05:08;6.63;;;4.43;;
26965;SDS011;14522;52.068;4.414;2024-02-26T05:07:39;7.68;;;5.05;;
26965;SDS011;14522;52.068;4.414;2024-02-26T05:10:05;6.32;;;4.25;;
26965;SDS011;14522;52.068;4.414;2024-02-26T05:12:32;6.18;;;4.47;;
26965;SDS011;14522;52.068;4.414;2024-02-26T05:15:01;6.72;;;4.65;;
26965;SDS011;14522;52.068;4.414;2024-02-26T05:17:28;5.07;;;3.97;;
26965;SDS011;14522;52.068;4.414;2024-02-26T05:19:55;7.63;;;5.15;;
26965;SDS011;14522;52.068;4.414;2024-02-26T05:22:21;6.85;;;5.05;;
26965;SDS011;14522;52.068;4.414;2024-02-26T05:24:47;6.68;;;4.95;;
26965;SDS011;14522;52.068;4.414;2024-02-26T05:27:14;7.47;;;5.05;;
26965;SDS011;14522;52.068;4.414;2024-02-26T05:29:40;8.10;;;4.82;;
26965;SDS011;14522;52.068;4.414;2024-02-26T05:32:07;7.35;;;4.75;;
26965;SDS011;14522;52.068;4.414;2024-02-26T05:34:33;6.68;;;4.72;;
26965;SDS011;14522;52.068;4.414;2024-02-26T05:37:00;6.57;;;4.63;;
26965;SDS011;14522;52.068;4.414;2024-02-26T05:39:27;6.50;;;4.32;;
26965;SDS011;14522;52.068;4.414;2024-02-26T05:41:53;8.27;;;5.60;;
26965;SDS011;14522;52.068;4.414;2024-02-26T05:44:20;7.30;;;4.97;;
26965;SDS011;14522;52.068;4.414;2024-02-26T05:46:46;8.85;;;5.05;;
26965;SDS011;14522;52.068;4.414;2024-02-26T05:49:13;8.55;;;5.78;;
26965;SDS011;14522;52.068;4.414;2024-02-26T05:51:39;9.02;;;5.90;;
26965;SDS011;14522;52.068;4.414;2024-02-26T05:54:06;8.43;;;5.20;;
26965;SDS011;14522;52.068;4.414;2024-02-26T05:56:32;8.88;;;5.88;;
26965;SDS011;14522;52.068;4.414;2024-02-26T05:58:59;8.93;;;6.15;;
26965;SDS011;14522;52.068;4.414;2024-02-26T06:01:25;8.35;;;6.15;;
26965;SDS011;14522;52.068;4.414;2024-02-26T06:03:52;10.48;;;5.88;;
26965;SDS011;14522;52.068;4.414;2024-02-26T06:06:19;11.23;;;6.60;;
26965;SDS011;14522;52.068;4.414;2024-02-26T06:08:45;9.77;;;7.05;;
26965;SDS011;14522;52.068;4.414;2024-02-26T06:11:12;9.93;;;5.72;;
26965;SDS011;14522;52.068;4.414;2024-02-26T06:13:38;11.13;;;6.93;;
26965;SDS011;14522;52.068;4.414;2024-02-26T06:16:05;9.77;;;6.57;;
26965;SDS011;14522;52.068;4.414;2024-02-26T06:18:31;10.93;;;6.82;;
26965;SDS011;14522;52.068;4.414;2024-02-26T06:20:58;9.95;;;5.88;;
26965;SDS011;14522;52.068;4.414;2024-02-26T06:23:25;9.95;;;6.75;;
26965;SDS011;14522;52.068;4.414;2024-02-26T06:25:52;9.63;;;6.25;;
26965;SDS011;14522;52.068;4.414;2024-02-26T06:28:19;7.88;;;5.75;;
26965;SDS011;14522;52.068;4.414;2024-02-26T06:30:45;6.90;;;4.90;;
26965;SDS011;14522;52.068;4.414;2024-02-26T06:33:12;8.15;;;5.28;;
26965;SDS011;14522;52.068;4.414;2024-02-26T06:35:40;12.57;;;7.70;;
26965;SDS011;14522;52.068;4.414;2024-02-26T06:38:07;9.77;;;6.20;;
26965;SDS011;14522;52.068;4.414;2024-02-26T06:40:34;11.57;;;7.65;;
26965;SDS011;14522;52.068;4.414;2024-02-26T06:43:00;10.70;;;7.00;;
26965;SDS011;14522;52.068;4.414;2024-02-26T06:45:27;10.32;;;6.53;;
26965;SDS011;14522;52.068;4.414;2024-02-26T06:47:53;8.98;;;6.90;;
26965;SDS011;14522;52.068;4.414;2024-02-26T06:50:22;10.05;;;7.03;;
26965;SDS011;14522;52.068;4.414;2024-02-26T06:52:48;9.00;;;6.28;;
26965;SDS011;14522;52.068;4.414;2024-02-26T06:55:14;10.30;;;7.57;;
26965;SDS011;14522;52.068;4.414;2024-02-26T06:57:41;10.43;;;6.88;;
26965;SDS011;14522;52.068;4.414;2024-02-26T07:00:08;6.80;;;4.95;;
26965;SDS011;14522;52.068;4.414;2024-02-26T07:02:34;8.95;;;6.78;;
26965;SDS011;14522;52.068;4.414;2024-02-26T07:05:05;6.35;;;4.90;;
26965;SDS011;14522;52.068;4.414;2024-02-26T07:07:31;7.15;;;4.95;;
26965;SDS011;14522;52.068;4.414;2024-02-26T07:09:58;6.05;;;4.03;;
26965;SDS011;14522;52.068;4.414;2024-02-26T07:12:24;5.00;;;3.45;;
26965;SDS011;14522;52.068;4.414;2024-02-26T07:14:51;9.75;;;6.20;;
26965;SDS011;14522;52.068;4.414;2024-02-26T07:17:18;5.93;;;4.38;;
26965;SDS011;14522;52.068;4.414;2024-02-26T07:19:45;7.85;;;5.60;;
26965;SDS011;14522;52.068;4.414;2024-02-26T07:22:12;8.07;;;5.72;;
26965;SDS011;14522;52.068;4.414;2024-02-26T07:24:38;8.70;;;5.65;;
26965;SDS011;14522;52.068;4.414;2024-02-26T07:27:05;5.60;;;3.90;;
26965;SDS011;14522;52.068;4.414;2024-02-26T07:29:31;8.25;;;6.28;;
26965;SDS011;14522;52.068;4.414;2024-02-26T07:31:58;7.45;;;5.13;;
26965;SDS011;14522;52.068;4.414;2024-02-26T07:34:24;5.70;;;4.63;;
26965;SDS011;14522;52.068;4.414;2024-02-26T07:36:56;6.70;;;4.80;;
26965;SDS011;14522;52.068;4.414;2024-02-26T07:39:22;7.18;;;4.43;;
26965;SDS011;14522;52.068;4.414;2024-02-26T07:41:49;5.05;;;3.63;;
26965;SDS011;14522;52.068;4.414;2024-02-26T07:44:18;5.30;;;3.80;;
26965;SDS011;14522;52.068;4.414;2024-02-26T07:46:46;4.90;;;3.78;;
26965;SDS011;14522;52.068;4.414;2024-02-26T07:49:12;4.50;;;3.65;;
26965;SDS011;14522;52.068;4.414;2024-02-26T07:51:39;6.85;;;4.55;;
26965;SDS011;14522;52.068;4.414;2024-02-26T07:54:05;6.97;;;4.05;;
26965;SDS011;14522;52.068;4.414;2024-02-26T07:56:32;4.97;;;2.92;;
26965;SDS011;14522;52.068;4.414;2024-02-26T07:58:58;4.38;;;3.20;;
26965;SDS011;14522;52.068;4.414;2024-02-26T08:01:25;4.55;;;2.70;;
26965;SDS011;14522;52.068;4.414;2024-02-26T08:03:53;4.88;;;3.15;;
26965;SDS011;14522;52.068;4.414;2024-02-26T08:06:19;3.72;;;2.72;;
26965;SDS011;14522;52.068;4.414;2024-02-26T08:08:46;4.60;;;3.22;;
26965;SDS011;14522;52.068;4.414;2024-02-26T08:11:14;6.28;;;2.97;;
26965;SDS011;14522;52.068;4.414;2024-02-26T08:13:40;4.93;;;3.00;;
26965;SDS011;14522;52.068;4.414;2024-02-26T08:16:07;3.50;;;2.38;;
26965;SDS011;14522;52.068;4.414;2024-02-26T08:18:33;3.47;;;2.60;;
26965;SDS011;14522;52.068;4.414;2024-02-26T08:21:00;4.32;;;2.90;;
26965;SDS011;14522;52.068;4.414;2024-02-26T08:23:26;3.85;;;2.50;;
26965;SDS011;14522;52.068;4.414;2024-02-26T08:25:53;4.10;;;2.53;;
26965;SDS011;14522;52.068;4.414;2024-02-26T08:28:19;3.17;;;2.08;;
26965;SDS011;14522;52.068;4.414;2024-02-26T08:30:46;4.35;;;2.00;;
26965;SDS011;14522;52.068;4.414;2024-02-26T08:33:12;4.70;;;2.70;;
26965;SDS011;14522;52.068;4.414;2024-02-26T08:35:40;2.97;;;1.85;;
26965;SDS011;14522;52.068;4.414;2024-02-26T08:38:06;2.95;;;1.83;;
26965;SDS011;14522;52.068;4.414;2024-02-26T08:40:33;4.05;;;2.30;;
26965;SDS011;14522;52.068;4.414;2024-02-26T08:42:59;3.55;;;2.25;;
26965;SDS011;14522;52.068;4.414;2024-02-26T08:45:26;2.97;;;1.83;;
26965;SDS011;14522;52.068;4.414;2024-02-26T08:47:56;2.78;;;1.80;;
26965;SDS011;14522;52.068;4.414;2024-02-26T08:50:22;3.55;;;2.35;;
26965;SDS011;14522;52.068;4.414;2024-02-26T08:52:48;2.25;;;1.52;;
26965;SDS011;14522;52.068;4.414;2024-02-26T08:55:17;3.30;;;1.83;;
26965;SDS011;14522;52.068;4.414;2024-02-26T08:57:43;4.82;;;2.08;;
26965;SDS011;14522;52.068;4.414;2024-02-26T09:00:10;3.28;;;2.28;;
26965;SDS011;14522;52.068;4.414;2024-02-26T09:02:37;3.33;;;1.88;;
26965;SDS011;14522;52.068;4.414;2024-02-26T09:05:08;3.85;;;2.58;;
26965;SDS011;14522;52.068;4.414;2024-02-26T09:07:35;2.60;;;1.98;;
26965;SDS011;14522;52.068;4.414;2024-02-26T09:10:02;3.97;;;2.28;;
26965;SDS011;14522;52.068;4.414;2024-02-26T09:12:28;4.38;;;2.03;;
26965;SDS011;14522;52.068;4.414;2024-02-26T09:14:55;3.00;;;2.20;;
26965;SDS011;14522;52.068;4.414;2024-02-26T09:17:23;2.55;;;1.60;;
26965;SDS011;14522;52.068;4.414;2024-02-26T09:19:50;2.58;;;2.00;;
26965;SDS011;14522;52.068;4.414;2024-02-26T09:22:16;3.08;;;2.15;;
26965;SDS011;14522;52.068;4.414;2024-02-26T09:24:44;2.72;;;1.63;;
26965;SDS011;14522;52.068;4.414;2024-02-26T09:27:10;4.38;;;1.60;;
26965;SDS011;14522;52.068;4.414;2024-02-26T09:29:37;3.28;;;1.60;;
26965;SDS011;14522;52.068;4.414;2024-02-26T09:32:03;2.70;;;1.95;;
26965;SDS011;14522;52.068;4.414;2024-02-26T09:34:30;3.08;;;2.00;;
26965;SDS011;14522;52.068;4.414;2024-02-26T09:36:57;2.05;;;1.30;;
26965;SDS011;14522;52.068;4.414;2024-02-26T09:39:37;3.00;;;1.67;;
26965;SDS011;14522;52.068;4.414;2024-02-26T09:42:04;2.88;;;1.60;;
26965;SDS011;14522;52.068;4.414;2024-02-26T09:44:31;3.40;;;1.80;;
26965;SDS011;14522;52.068;4.414;2024-02-26T09:47:01;3.90;;;1.88;;
26965;SDS011;14522;52.068;4.414;2024-02-26T09:49:29;2.83;;;1.85;;
26965;SDS011;14522;52.068;4.414;2024-02-26T09:51:55;2.45;;;1.40;;
26965;SDS011;14522;52.068;4.414;2024-02-26T09:54:22;1.33;;;1.15;;
26965;SDS011;14522;52.068;4.414;2024-02-26T09:56:52;2.85;;;1.27;;
26965;SDS011;14522;52.068;4.414;2024-02-26T09:59:29;1.15;;;0.93;;
26965;SDS011;14522;52.068;4.414;2024-02-26T10:02:07;2.83;;;1.40;;
26965;SDS011;14522;52.068;4.414;2024-02-26T10:04:35;4.10;;;2.20;;
26965;SDS011;14522;52.068;4.414;2024-02-26T10:07:01;1.73;;;1.20;;
26965;SDS011;14522;52.068;4.414;2024-02-26T10:09:30;3.80;;;1.55;;
26965;SDS011;14522;52.068;4.414;2024-02-26T10:11:58;2.45;;;1.48;;
26965;SDS011;14522;52.068;4.414;2024-02-26T10:14:25;2.58;;;1.90;;
26965;SDS011;14522;52.068;4.414;2024-02-26T10:16:52;2.75;;;1.48;;
26965;SDS011;14522;52.068;4.414;2024-02-26T10:19:25;2.47;;;1.50;;
26965;SDS011;14522;52.068;4.414;2024-02-26T10:21:58;2.17;;;1.50;;
26965;SDS011;14522;52.068;4.414;2024-02-26T10:24:25;2.47;;;1.40;;
26965;SDS011;14522;52.068;4.414;2024-02-26T10:26:52;4.18;;;1.80;;
26965;SDS011;14522;52.068;4.414;2024-02-26T10:29:19;2.55;;;1.55;;
26965;SDS011;14522;52.068;4.414;2024-02-26T10:31:46;2.58;;;1.45;;
26965;SDS011;14522;52.068;4.414;2024-02-26T10:34:13;3.28;;;1.40;;
26965;SDS011;14522;52.068;4.414;2024-02-26T10:36:41;2.72;;;1.67;;
26965;SDS011;14522;52.068;4.414;2024-02-26T10:39:18;3.83;;;1.70;;
26965;SDS011;14522;52.068;4.414;2024-02-26T10:41:45;1.50;;;1.02;;
26965;SDS011;14522;52.068;4.414;2024-02-26T10:44:12;3.05;;;2.08;;
26965;SDS011;14522;52.068;4.414;2024-02-26T10:46:43;2.90;;;1.73;;
26965;SDS011;14522;52.068;4.414;2024-02-26T10:49:15;4.63;;;1.73;;
26965;SDS011;14522;52.068;4.414;2024-02-26T10:51:51;3.15;;;1.83;;
26965;SDS011;14522;52.068;4.414;2024-02-26T10:54:19;2.45;;;1.77;;
26965;SDS011;14522;52.068;4.414;2024-02-26T10:56:46;3.22;;;2.00;;
26965;SDS011;14522;52.068;4.414;2024-02-26T10:59:13;5.25;;;1.85;;
26965;SDS011;14522;52.068;4.414;2024-02-26T11:01:40;2.40;;;0.75;;
26965;SDS011;14522;52.068;4.414;2024-02-26T11:04:08;2.10;;;0.98;;
26965;SDS011;14522;52.068;4.414;2024-02-26T11:06:35;3.03;;;1.73;;
26965;SDS011;14522;52.068;4.414;2024-02-26T11:09:02;2.90;;;1.70;;
26965;SDS011;14522;52.068;4.414;2024-02-26T11:11:30;4.00;;;1.30;;
26965;SDS011;14522;52.068;4.414;2024-02-26T11:13:58;2.83;;;1.50;;
26965;SDS011;14522;52.068;4.414;2024-02-26T11:16:25;3.05;;;1.70;;
26965;SDS011;14522;52.068;4.414;2024-02-26T11:18:52;2.13;;;1.40;;
26965;SDS011;14522;52.068;4.414;2024-02-26T11:21:21;2.55;;;1.65;;
26965;SDS011;14522;52.068;4.414;2024-02-26T11:23:56;2.05;;;1.38;;
26965;SDS011;14522;52.068;4.414;2024-02-26T11:26:23;3.25;;;1.60;;
26965;SDS011;14522;52.068;4.414;2024-02-26T11:28:50;20.90;;;2.08;;
26965;SDS011;14522;52.068;4.414;2024-02-26T11:31:17;4.85;;;1.80;;
26965;SDS011;14522;52.068;4.414;2024-02-26T11:33:51;2.33;;;1.65;;
26965;SDS011;14522;52.068;4.414;2024-02-26T11:36:19;2.70;;;1.73;;
26965;SDS011;14522;52.068;4.414;2024-02-26T11:38:46;3.05;;;1.48;;
26965;SDS011;14522;52.068;4.414;2024-02-26T11:41:15;2.88;;;1.30;;
26965;SDS011;14522;52.068;4.414;2024-02-26T11:43:51;5.20;;;1.80;;
26965;SDS011;14522;52.068;4.414;2024-02-26T11:51:51;1.97;;;1.40;;
26965;SDS011;14522;52.068;4.414;2024-02-26T11:57:03;3.95;;;1.30;;
26965;SDS011;14522;52.068;4.414;2024-02-26T11:59:39;2.50;;;1.33;;
26965;SDS011;14522;52.068;4.414;2024-02-26T12:02:07;2.70;;;0.98;;
26965;SDS011;14522;52.068;4.414;2024-02-26T12:04:34;2.70;;;1.27;;
26965;SDS011;14522;52.068;4.414;2024-02-26T12:07:02;2.42;;;1.10;;
26965;SDS011;14522;52.068;4.414;2024-02-26T12:09:40;2.35;;;1.20;;
26965;SDS011;14522;52.068;4.414;2024-02-26T12:12:08;2.80;;;1.10;;
26965;SDS011;14522;52.068;4.414;2024-02-26T12:14:37;2.30;;;0.63;;
26965;SDS011;14522;52.068;4.414;2024-02-26T12:17:04;2.15;;;1.15;;
26965;SDS011;14522;52.068;4.414;2024-02-26T12:19:34;1.20;;;1.00;;
26965;SDS011;14522;52.068;4.414;2024-02-26T12:22:00;1.10;;;1.00;;
26965;SDS011;14522;52.068;4.414;2024-02-26T12:24:27;2.95;;;0.85;;
26965;SDS011;14522;52.068;4.414;2024-02-26T12:26:54;2.50;;;1.33;;
26965;SDS011;14522;52.068;4.414;2024-02-26T12:29:20;2.22;;;1.30;;
26965;SDS011;14522;52.068;4.414;2024-02-26T12:31:47;2.53;;;1.02;;
26965;SDS011;14522;52.068;4.414;2024-02-26T12:34:14;1.45;;;0.93;;
26965;SDS011;14522;52.068;4.414;2024-02-26T12:36:43;1.67;;;1.08;;
26965;SDS011;14522;52.068;4.414;2024-02-26T12:39:10;5.03;;;1.15;;
26965;SDS011;14522;52.068;4.414;2024-02-26T12:41:37;2.47;;;1.02;;
26965;SDS011;14522;52.068;4.414;2024-02-26T12:44:04;3.13;;;1.10;;
26965;SDS011;14522;52.068;4.414;2024-02-26T12:46:30;2.70;;;0.88;;
26965;SDS011;14522;52.068;4.414;2024-02-26T12:48:58;3.65;;;1.23;;
26965;SDS011;14522;52.068;4.414;2024-02-26T12:51:26;2.35;;;0.90;;
26965;SDS011;14522;52.068;4.414;2024-02-26T12:53:53;1.02;;;0.70;;
26965;SDS011;14522;52.068;4.414;2024-02-26T12:56:20;2.28;;;0.90;;
26965;SDS011;14522;52.068;4.414;2024-02-26T12:58:47;2.50;;;1.33;;
26965;SDS011;14522;52.068;4.414;2024-02-26T13:01:15;1.63;;;1.10;;
26965;SDS011;14522;52.068;4.414;2024-02-26T13:03:42;2.35;;;1.40;;
26965;SDS011;14522;52.068;4.414;2024-02-26T13:06:09;1.20;;;0.88;;
26965;SDS011;14522;52.068;4.414;2024-02-26T13:08:36;1.92;;;0.90;;
26965;SDS011;14522;52.068;4.414;2024-02-26T13:11:03;3.13;;;1.02;;
26965;SDS011;14522;52.068;4.414;2024-02-26T13:13:30;1.58;;;1.05;;
26965;SDS011;14522;52.068;4.414;2024-02-26T13:16:01;2.53;;;1.10;;
26965;SDS011;14522;52.068;4.414;2024-02-26T13:18:27;3.70;;;1.40;;
26965;SDS011;14522;52.068;4.414;2024-02-26T13:21:07;3.42;;;1.20;;
26965;SDS011;14522;52.068;4.414;2024-02-26T13:23:33;4.22;;;1.20;;
26965;SDS011;14522;52.068;4.414;2024-02-26T13:26:00;3.88;;;1.15;;
26965;SDS011;14522;52.068;4.414;2024-02-26T13:28:26;1.88;;;1.13;;
26965;SDS011;14522;52.068;4.414;2024-02-26T13:30:56;2.00;;;1.10;;
26965;SDS011;14522;52.068;4.414;2024-02-26T13:33:24;2.30;;;1.13;;
26965;SDS011;14522;52.068;4.414;2024-02-26T13:35:51;5.20;;;1.13;;
26965;SDS011;14522;52.068;4.414;2024-02-26T13:38:18;1.80;;;0.98;;
26965;SDS011;14522;52.068;4.414;2024-02-26T13:40:44;2.83;;;1.15;;
26965;SDS011;14522;52.068;4.414;2024-02-26T13:43:11;2.10;;;1.25;;
26965;SDS011;14522;52.068;4.414;2024-02-26T13:45:38;5.68;;;1.00;;
26965;SDS011;14522;52.068;4.414;2024-02-26T13:48:07;1.70;;;0.77;;
26965;SDS011;14522;52.068;4.414;2024-02-26T13:50:36;1.02;;;0.73;;
26965;SDS011;14522;52.068;4.414;2024-02-26T13:53:03;4.18;;;1.98;;
26965;SDS011;14522;52.068;4.414;2024-02-26T13:55:30;3.42;;;1.25;;
26965;SDS011;14522;52.068;4.414;2024-02-26T13:57:58;2.75;;;1.05;;
26965;SDS011;14522;52.068;4.414;2024-02-26T14:00:26;3.45;;;1.35;;
26965;SDS011;14522;52.068;4.414;2024-02-26T14:02:53;5.53;;;1.30;;
26965;SDS011;14522;52.068;4.414;2024-02-26T14:05:19;2.95;;;0.93;;
26965;SDS011;14522;52.068;4.414;2024-02-26T14:07:46;2.88;;;0.90;;
26965;SDS011;14522;52.068;4.414;2024-02-26T14:10:17;2.95;;;0.90;;
26965;SDS011;14522;52.068;4.414;2024-02-26T14:12:43;2.67;;;0.90;;
26965;SDS011;14522;52.068;4.414;2024-02-26T14:15:10;2.00;;;0.77;;
26965;SDS011;14522;52.068;4.414;2024-02-26T14:17:36;2.90;;;0.90;;
26965;SDS011;14522;52.068;4.414;2024-02-26T14:20:03;2.05;;;0.80;;
26965;SDS011;14522;52.068;4.414;2024-02-26T14:22:31;1.98;;;0.90;;
26965;SDS011;14522;52.068;4.414;2024-02-26T14:24:57;2.90;;;1.02;;
26965;SDS011;14522;52.068;4.414;2024-02-26T14:27:24;5.05;;;1.73;;
26965;SDS011;14522;52.068;4.414;2024-02-26T14:29:50;2.55;;;0.90;;
26965;SDS011;14522;52.068;4.414;2024-02-26T14:32:17;1.60;;;1.10;;
26965;SDS011;14522;52.068;4.414;2024-02-26T14:34:43;3.20;;;1.10;;
26965;SDS011;14522;52.068;4.414;2024-02-26T14:37:10;1.73;;;0.90;;
26965;SDS011;14522;52.068;4.414;2024-02-26T14:39:37;2.00;;;1.10;;
26965;SDS011;14522;52.068;4.414;2024-02-26T14:42:03;2.83;;;1.25;;
26965;SDS011;14522;52.068;4.414;2024-02-26T14:44:30;2.50;;;0.95;;
26965;SDS011;14522;52.068;4.414;2024-02-26T14:46:56;2.55;;;1.10;;
26965;SDS011;14522;52.068;4.414;2024-02-26T14:49:23;3.25;;;1.48;;
26965;SDS011;14522;52.068;4.414;2024-02-26T14:51:50;4.95;;;1.38;;
26965;SDS011;14522;52.068;4.414;2024-02-26T14:54:16;2.67;;;1.02;;
26965;SDS011;14522;52.068;4.414;2024-02-26T14:56:42;3.40;;;1.45;;